Tapera, Brazil
Current Conditions -  °F | °C
As of 3:00 PM on Saturday 22 Nov 2014 (Local Time) from SBPF Reporting Station
Scattered Clouds Scattered Clouds  
Wind Chill: 23°   Ceiling: Unl
Heat Index: 23°   Visibility: 6mi
Dew Point: 15°   Wind: 16mph
Humidity: 61%   Direction: 260°W
Pressure: 29.91"   Gusts: NA
Location:  28.63°S, 52.87°W
Report Text: SBPF 221700Z 26014KT 9999 FEW020 SCT100 23/15 Q1013
Loading
Personal Weather Stations






























Interactive Weather Map New forecast layout! Learn more

10-Day Weather Forecast

Advertisements
Track Severe Weather on mobile